Fairview, Montana
Current Conditions -  °F | °C
As of 2:55 AM on Wednesday 26 Nov 2014 (Local Time) from KSDY Reporting Station
Overcast Overcast  
Wind Chill: -5°   Ceiling: 1300
Heat Index: -5°   Visibility: 4mi
Dew Point: -9°   Wind: 0mph
Humidity: 74%   Direction: NA
Pressure: 30.25"   Gusts: NA
Location:  47.86°N, 104.04°W
Report Text: KSDY 260955Z AUTO 00000KT 4SM OVC013 M05/M09 A3025 RMK AO1
Loading
Personal Weather Stations






























Interactive Weather Map New forecast layout! Learn more

10-Day Weather Forecast

Advertisements
Track Severe Weather on mobile